sensor_id;sensor_type;location;lat;lon;timestamp;temperature;humidity
12287;DHT22;6206;53.100;11.098;2023-02-19T00:01:40;8.20;99.90
12287;DHT22;6206;53.100;11.098;2023-02-19T00:04:08;8.20;99.90
12287;DHT22;6206;53.100;11.098;2023-02-19T00:09:03;8.30;99.90
12287;DHT22;6206;53.100;11.098;2023-02-19T00:11:32;8.20;99.90
12287;DHT22;6206;53.100;11.098;2023-02-19T00:23:49;7.90;99.90
12287;DHT22;6206;53.100;11.098;2023-02-19T00:26:15;8.00;99.90
12287;DHT22;6206;53.100;11.098;2023-02-19T00:28:43;8.00;99.90
12287;DHT22;6206;53.100;11.098;2023-02-19T00:31:13;7.90;99.90
12287;DHT22;6206;53.100;11.098;2023-02-19T00:33:40;7.90;99.90
12287;DHT22;6206;53.100;11.098;2023-02-19T00:36:06;7.90;99.90
12287;DHT22;6206;53.100;11.098;2023-02-19T00:38:34;8.00;99.90
12287;DHT22;6206;53.100;11.098;2023-02-19T00:43:44;7.90;99.90
12287;DHT22;6206;53.100;11.098;2023-02-19T00:46:11;7.80;99.90
12287;DHT22;6206;53.100;11.098;2023-02-19T00:48:37;7.80;99.90
12287;DHT22;6206;53.100;11.098;2023-02-19T00:51:04;7.70;99.90
12287;DHT22;6206;53.100;11.098;2023-02-19T00:53:31;7.70;99.90
12287;DHT22;6206;53.100;11.098;2023-02-19T00:58:24;7.70;99.90
12287;DHT22;6206;53.100;11.098;2023-02-19T01:00:52;7.70;99.90
12287;DHT22;6206;53.100;11.098;2023-02-19T01:08:13;7.60;99.90
12287;DHT22;6206;53.100;11.098;2023-02-19T01:10:40;7.60;99.90
12287;DHT22;6206;53.100;11.098;2023-02-19T01:13:06;7.60;99.90
12287;DHT22;6206;53.100;11.098;2023-02-19T01:15:33;7.50;99.90
12287;DHT22;6206;53.100;11.098;2023-02-19T01:18:01;7.50;99.90
12287;DHT22;6206;53.100;11.098;2023-02-19T01:20:27;7.40;99.90
12287;DHT22;6206;53.100;11.098;2023-02-19T01:22:54;7.50;99.90
12287;DHT22;6206;53.100;11.098;2023-02-19T01:25:20;7.40;99.90
12287;DHT22;6206;53.100;11.098;2023-02-19T01:30:14;7.40;99.90
12287;DHT22;6206;53.100;11.098;2023-02-19T01:32:40;7.40;99.90
12287;DHT22;6206;53.100;11.098;2023-02-19T01:35:08;7.30;99.90
12287;DHT22;6206;53.100;11.098;2023-02-19T01:37:34;7.30;99.90
12287;DHT22;6206;53.100;11.098;2023-02-19T01:40:01;7.40;99.90
12287;DHT22;6206;53.100;11.098;2023-02-19T01:42:28;7.30;99.90
12287;DHT22;6206;53.100;11.098;2023-02-19T01:47:48;7.20;99.90
12287;DHT22;6206;53.100;11.098;2023-02-19T01:50:18;7.20;99.90
12287;DHT22;6206;53.100;11.098;2023-02-19T01:52:45;7.20;99.90
12287;DHT22;6206;53.100;11.098;2023-02-19T01:55:11;7.10;99.90
12287;DHT22;6206;53.100;11.098;2023-02-19T01:57:40;7.10;99.90
12287;DHT22;6206;53.100;11.098;2023-02-19T02:00:08;7.10;99.90
12287;DHT22;6206;53.100;11.098;2023-02-19T02:02:35;7.00;99.90
12287;DHT22;6206;53.100;11.098;2023-02-19T02:05:02;6.90;99.90
12287;DHT22;6206;53.100;11.098;2023-02-19T02:07:30;6.90;99.90
12287;DHT22;6206;53.100;11.098;2023-02-19T02:10:14;6.90;99.90
12287;DHT22;6206;53.100;11.098;2023-02-19T02:12:47;6.80;99.90
12287;DHT22;6206;53.100;11.098;2023-02-19T02:15:13;6.80;99.90
12287;DHT22;6206;53.100;11.098;2023-02-19T02:17:43;6.70;99.90
12287;DHT22;6206;53.100;11.098;2023-02-19T02:22:58;6.80;99.90
12287;DHT22;6206;53.100;11.098;2023-02-19T02:25:35;6.80;99.90
12287;DHT22;6206;53.100;11.098;2023-02-19T02:28:08;6.90;99.90
12287;DHT22;6206;53.100;11.098;2023-02-19T02:30:42;6.80;99.90
12287;DHT22;6206;53.100;11.098;2023-02-19T02:33:12;6.80;99.90
12287;DHT22;6206;53.100;11.098;2023-02-19T02:35:40;6.80;99.90
12287;DHT22;6206;53.100;11.098;2023-02-19T02:38:08;6.70;99.90
12287;DHT22;6206;53.100;11.098;2023-02-19T02:40:36;6.60;99.90
12287;DHT22;6206;53.100;11.098;2023-02-19T02:45:32;6.70;99.90
12287;DHT22;6206;53.100;11.098;2023-02-19T02:48:10;6.70;99.90
12287;DHT22;6206;53.100;11.098;2023-02-19T02:50:39;6.80;99.90
12287;DHT22;6206;53.100;11.098;2023-02-19T02:53:07;6.80;99.90
12287;DHT22;6206;53.100;11.098;2023-02-19T02:55:52;6.80;99.90
12287;DHT22;6206;53.100;11.098;2023-02-19T02:58:20;6.80;99.90
12287;DHT22;6206;53.100;11.098;2023-02-19T03:00:48;6.80;99.90
12287;DHT22;6206;53.100;11.098;2023-02-19T03:03:35;6.70;99.90
12287;DHT22;6206;53.100;11.098;2023-02-19T03:06:04;6.70;99.90
12287;DHT22;6206;53.100;11.098;2023-02-19T03:08:33;6.70;99.90
12287;DHT22;6206;53.100;11.098;2023-02-19T03:11:03;6.60;99.90
12287;DHT22;6206;53.100;11.098;2023-02-19T03:13:44;6.60;99.90
12287;DHT22;6206;53.100;11.098;2023-02-19T03:16:41;6.60;99.90
12287;DHT22;6206;53.100;11.098;2023-02-19T03:19:27;6.60;99.90
12287;DHT22;6206;53.100;11.098;2023-02-19T03:21:56;6.60;99.90
12287;DHT22;6206;53.100;11.098;2023-02-19T03:27:09;6.60;99.90
12287;DHT22;6206;53.100;11.098;2023-02-19T03:29:37;6.60;99.90
12287;DHT22;6206;53.100;11.098;2023-02-19T03:32:05;6.60;99.90
12287;DHT22;6206;53.100;11.098;2023-02-19T03:34:35;6.60;99.90
12287;DHT22;6206;53.100;11.098;2023-02-19T03:37:05;6.60;99.90
12287;DHT22;6206;53.100;11.098;2023-02-19T03:39:32;6.60;99.90
12287;DHT22;6206;53.100;11.098;2023-02-19T03:42:11;6.60;99.90
12287;DHT22;6206;53.100;11.098;2023-02-19T03:44:39;6.60;99.90
12287;DHT22;6206;53.100;11.098;2023-02-19T03:47:09;6.60;99.90
12287;DHT22;6206;53.100;11.098;2023-02-19T03:49:40;6.60;99.90
12287;DHT22;6206;53.100;11.098;2023-02-19T03:52:09;6.50;99.90
12287;DHT22;6206;53.100;11.098;2023-02-19T03:54:40;6.40;99.90
12287;DHT22;6206;53.100;11.098;2023-02-19T03:57:10;6.40;99.90
12287;DHT22;6206;53.100;11.098;2023-02-19T03:59:40;6.40;99.90
12287;DHT22;6206;53.100;11.098;2023-02-19T04:02:08;6.40;99.90
12287;DHT22;6206;53.100;11.098;2023-02-19T04:07:04;6.30;99.90
12287;DHT22;6206;53.100;11.098;2023-02-19T04:09:32;6.30;99.90
12287;DHT22;6206;53.100;11.098;2023-02-19T04:12:01;6.30;99.90
12287;DHT22;6206;53.100;11.098;2023-02-19T04:14:29;6.20;99.90
12287;DHT22;6206;53.100;11.098;2023-02-19T04:19:25;6.20;99.90
12287;DHT22;6206;53.100;11.098;2023-02-19T04:21:52;6.20;99.90
12287;DHT22;6206;53.100;11.098;2023-02-19T04:24:22;6.10;99.90
12287;DHT22;6206;53.100;11.098;2023-02-19T04:26:49;6.20;99.90
12287;DHT22;6206;53.100;11.098;2023-02-19T04:29:16;6.20;99.90
12287;DHT22;6206;53.100;11.098;2023-02-19T04:31:43;6.10;99.90
12287;DHT22;6206;53.100;11.098;2023-02-19T04:34:09;6.20;99.90
12287;DHT22;6206;53.100;11.098;2023-02-19T04:36:36;6.20;99.90
12287;DHT22;6206;53.100;11.098;2023-02-19T04:39:02;6.20;99.90
12287;DHT22;6206;53.100;11.098;2023-02-19T04:41:30;6.30;99.90
12287;DHT22;6206;53.100;11.098;2023-02-19T04:46:23;6.40;99.90
12287;DHT22;6206;53.100;11.098;2023-02-19T04:48:50;6.40;99.90
12287;DHT22;6206;53.100;11.098;2023-02-19T04:51:16;6.40;99.90
12287;DHT22;6206;53.100;11.098;2023-02-19T04:53:43;6.50;99.90
12287;DHT22;6206;53.100;11.098;2023-02-19T04:56:10;6.60;99.90
12287;DHT22;6206;53.100;11.098;2023-02-19T04:58:38;6.70;99.90
12287;DHT22;6206;53.100;11.098;2023-02-19T05:01:05;6.70;99.90
12287;DHT22;6206;53.100;11.098;2023-02-19T05:03:31;6.70;99.90
12287;DHT22;6206;53.100;11.098;2023-02-19T05:06:00;6.80;99.90
12287;DHT22;6206;53.100;11.098;2023-02-19T05:08:27;6.80;99.90
12287;DHT22;6206;53.100;11.098;2023-02-19T05:13:20;6.90;99.90
12287;DHT22;6206;53.100;11.098;2023-02-19T05:15:55;6.90;99.90
12287;DHT22;6206;53.100;11.098;2023-02-19T05:18:21;6.90;99.90
12287;DHT22;6206;53.100;11.098;2023-02-19T05:20:48;7.00;99.90
12287;DHT22;6206;53.100;11.098;2023-02-19T05:23:15;6.90;99.90
12287;DHT22;6206;53.100;11.098;2023-02-19T05:25:41;6.90;99.90
12287;DHT22;6206;53.100;11.098;2023-02-19T05:30:44;6.80;99.90
12287;DHT22;6206;53.100;11.098;2023-02-19T05:33:12;6.80;99.90
12287;DHT22;6206;53.100;11.098;2023-02-19T05:38:05;6.90;99.90
12287;DHT22;6206;53.100;11.098;2023-02-19T05:40:32;6.80;99.90
12287;DHT22;6206;53.100;11.098;2023-02-19T05:42:59;6.90;99.90
12287;DHT22;6206;53.100;11.098;2023-02-19T05:45:25;6.80;99.90
12287;DHT22;6206;53.100;11.098;2023-02-19T05:47:52;6.80;99.90
12287;DHT22;6206;53.100;11.098;2023-02-19T05:50:19;6.70;99.90
12287;DHT22;6206;53.100;11.098;2023-02-19T05:52:46;6.80;99.90
12287;DHT22;6206;53.100;11.098;2023-02-19T05:57:39;6.70;99.90
12287;DHT22;6206;53.100;11.098;2023-02-19T06:02:33;6.80;99.90
12287;DHT22;6206;53.100;11.098;2023-02-19T06:04:59;6.80;99.90
12287;DHT22;6206;53.100;11.098;2023-02-19T06:07:27;6.70;99.90
12287;DHT22;6206;53.100;11.098;2023-02-19T06:09:54;6.60;99.90
12287;DHT22;6206;53.100;11.098;2023-02-19T06:12:20;6.60;99.90
12287;DHT22;6206;53.100;11.098;2023-02-19T06:14:47;6.60;99.90
12287;DHT22;6206;53.100;11.098;2023-02-19T06:19:40;6.50;99.90
12287;DHT22;6206;53.100;11.098;2023-02-19T06:22:07;6.40;99.90
12287;DHT22;6206;53.100;11.098;2023-02-19T06:24:35;6.30;99.90
12287;DHT22;6206;53.100;11.098;2023-02-19T06:27:04;6.30;99.90
12287;DHT22;6206;53.100;11.098;2023-02-19T06:29:30;6.30;99.90
12287;DHT22;6206;53.100;11.098;2023-02-19T06:31:57;6.30;99.90
12287;DHT22;6206;53.100;11.098;2023-02-19T06:34:24;6.40;99.90
12287;DHT22;6206;53.100;11.098;2023-02-19T06:36:51;6.30;99.90
12287;DHT22;6206;53.100;11.098;2023-02-19T06:41:45;6.30;99.90
12287;DHT22;6206;53.100;11.098;2023-02-19T06:44:12;6.40;99.90
12287;DHT22;6206;53.100;11.098;2023-02-19T06:46:38;6.30;99.90
12287;DHT22;6206;53.100;11.098;2023-02-19T06:49:05;6.30;99.90
12287;DHT22;6206;53.100;11.098;2023-02-19T06:51:31;6.30;99.90
12287;DHT22;6206;53.100;11.098;2023-02-19T06:56:27;6.30;99.90
12287;DHT22;6206;53.100;11.098;2023-02-19T07:01:22;6.30;99.90
12287;DHT22;6206;53.100;11.098;2023-02-19T07:03:48;6.20;99.90
12287;DHT22;6206;53.100;11.098;2023-02-19T07:06:15;6.20;99.90
12287;DHT22;6206;53.100;11.098;2023-02-19T07:08:41;6.20;99.90
12287;DHT22;6206;53.100;11.098;2023-02-19T07:11:08;6.10;99.90
12287;DHT22;6206;53.100;11.098;2023-02-19T07:13:34;6.10;99.90
12287;DHT22;6206;53.100;11.098;2023-02-19T07:16:01;6.10;99.90
12287;DHT22;6206;53.100;11.098;2023-02-19T07:18:29;6.10;99.90
12287;DHT22;6206;53.100;11.098;2023-02-19T07:21:00;6.00;99.90
12287;DHT22;6206;53.100;11.098;2023-02-19T07:28:20;6.00;99.90
12287;DHT22;6206;53.100;11.098;2023-02-19T07:30:47;6.00;99.90
12287;DHT22;6206;53.100;11.098;2023-02-19T07:33:13;6.00;99.90
12287;DHT22;6206;53.100;11.098;2023-02-19T07:35:45;6.00;99.90
12287;DHT22;6206;53.100;11.098;2023-02-19T07:38:13;6.00;99.90
12287;DHT22;6206;53.100;11.098;2023-02-19T07:40:40;6.00;99.90
12287;DHT22;6206;53.100;11.098;2023-02-19T07:43:06;6.00;99.90
12287;DHT22;6206;53.100;11.098;2023-02-19T07:45:33;5.90;99.90
12287;DHT22;6206;53.100;11.098;2023-02-19T07:48:00;6.00;99.90
12287;DHT22;6206;53.100;11.098;2023-02-19T07:55:21;6.00;99.90
12287;DHT22;6206;53.100;11.098;2023-02-19T07:57:48;6.10;99.90
12287;DHT22;6206;53.100;11.098;2023-02-19T08:00:14;6.20;99.90
12287;DHT22;6206;53.100;11.098;2023-02-19T08:02:41;6.30;99.90
12287;DHT22;6206;53.100;11.098;2023-02-19T08:05:26;6.30;99.90
12287;DHT22;6206;53.100;11.098;2023-02-19T08:07:52;6.20;99.90
12287;DHT22;6206;53.100;11.098;2023-02-19T08:10:19;6.20;99.90
12287;DHT22;6206;53.100;11.098;2023-02-19T08:13:05;6.20;99.90
12287;DHT22;6206;53.100;11.098;2023-02-19T08:15:51;6.30;99.90
12287;DHT22;6206;53.100;11.098;2023-02-19T08:20:44;6.30;99.90
12287;DHT22;6206;53.100;11.098;2023-02-19T08:23:11;6.40;99.90
12287;DHT22;6206;53.100;11.098;2023-02-19T08:25:38;6.40;99.90
12287;DHT22;6206;53.100;11.098;2023-02-19T08:28:06;6.50;99.90
12287;DHT22;6206;53.100;11.098;2023-02-19T08:30:33;6.50;99.90
12287;DHT22;6206;53.100;11.098;2023-02-19T08:33:02;6.60;99.90
12287;DHT22;6206;53.100;11.098;2023-02-19T08:35:29;6.60;99.90
12287;DHT22;6206;53.100;11.098;2023-02-19T08:37:56;6.50;99.90
12287;DHT22;6206;53.100;11.098;2023-02-19T08:40:23;6.60;99.90
12287;DHT22;6206;53.100;11.098;2023-02-19T08:42:49;6.60;99.90
12287;DHT22;6206;53.100;11.098;2023-02-19T08:47:44;6.70;99.90
12287;DHT22;6206;53.100;11.098;2023-02-19T08:50:11;6.70;99.90
12287;DHT22;6206;53.100;11.098;2023-02-19T08:52:37;6.60;99.90
12287;DHT22;6206;53.100;11.098;2023-02-19T08:55:05;6.70;99.90
12287;DHT22;6206;53.100;11.098;2023-02-19T08:57:34;6.60;99.90
12287;DHT22;6206;53.100;11.098;2023-02-19T09:00:02;6.80;99.90
12287;DHT22;6206;53.100;11.098;2023-02-19T09:04:57;6.80;99.90
12287;DHT22;6206;53.100;11.098;2023-02-19T09:07:23;6.90;99.90
12287;DHT22;6206;53.100;11.098;2023-02-19T09:09:49;6.90;99.90
12287;DHT22;6206;53.100;11.098;2023-02-19T09:12:16;6.90;99.90
12287;DHT22;6206;53.100;11.098;2023-02-19T09:14:43;6.80;99.90
12287;DHT22;6206;53.100;11.098;2023-02-19T09:17:09;6.80;99.90
12287;DHT22;6206;53.100;11.098;2023-02-19T09:19:36;6.90;99.90
12287;DHT22;6206;53.100;11.098;2023-02-19T09:22:04;6.90;99.90
12287;DHT22;6206;53.100;11.098;2023-02-19T09:24:30;7.00;99.90
12287;DHT22;6206;53.100;11.098;2023-02-19T09:29:24;7.00;99.90
12287;DHT22;6206;53.100;11.098;2023-02-19T09:31:54;7.00;99.90
12287;DHT22;6206;53.100;11.098;2023-02-19T09:34:20;7.10;99.90
12287;DHT22;6206;53.100;11.098;2023-02-19T09:36:47;7.10;99.90
12287;DHT22;6206;53.100;11.098;2023-02-19T09:39:15;7.10;99.90
12287;DHT22;6206;53.100;11.098;2023-02-19T09:41:42;7.10;99.90
12287;DHT22;6206;53.100;11.098;2023-02-19T09:44:11;7.20;99.90
12287;DHT22;6206;53.100;11.098;2023-02-19T09:46:39;7.30;99.90
12287;DHT22;6206;53.100;11.098;2023-02-19T09:49:10;7.30;99.90
12287;DHT22;6206;53.100;11.098;2023-02-19T09:51:38;7.30;99.90
12287;DHT22;6206;53.100;11.098;2023-02-19T09:54:06;7.40;99.90
12287;DHT22;6206;53.100;11.098;2023-02-19T09:56:37;7.40;99.90
12287;DHT22;6206;53.100;11.098;2023-02-19T09:59:03;7.40;99.90
12287;DHT22;6206;53.100;11.098;2023-02-19T10:03:58;7.50;99.90
12287;DHT22;6206;53.100;11.098;2023-02-19T10:06:26;7.60;99.90
12287;DHT22;6206;53.100;11.098;2023-02-19T10:08:54;7.60;99.90
12287;DHT22;6206;53.100;11.098;2023-02-19T10:13:50;7.60;99.90
12287;DHT22;6206;53.100;11.098;2023-02-19T10:16:18;7.70;99.90
12287;DHT22;6206;53.100;11.098;2023-02-19T10:18:46;7.60;99.90
12287;DHT22;6206;53.100;11.098;2023-02-19T10:21:16;7.60;99.90
12287;DHT22;6206;53.100;11.098;2023-02-19T10:23:44;7.60;99.90
12287;DHT22;6206;53.100;11.098;2023-02-19T10:26:11;7.70;99.90
12287;DHT22;6206;53.100;11.098;2023-02-19T10:28:38;7.70;99.90
12287;DHT22;6206;53.100;11.098;2023-02-19T10:31:15;7.80;99.90
12287;DHT22;6206;53.100;11.098;2023-02-19T10:33:47;7.70;99.90
12287;DHT22;6206;53.100;11.098;2023-02-19T10:36:15;7.60;99.90
12287;DHT22;6206;53.100;11.098;2023-02-19T10:38:44;7.60;99.90
12287;DHT22;6206;53.100;11.098;2023-02-19T10:41:12;7.60;99.90
12287;DHT22;6206;53.100;11.098;2023-02-19T10:43:40;7.70;99.90
12287;DHT22;6206;53.100;11.098;2023-02-19T10:46:14;7.80;99.90
12287;DHT22;6206;53.100;11.098;2023-02-19T10:48:44;7.90;99.90
12287;DHT22;6206;53.100;11.098;2023-02-19T10:51:11;7.90;99.90
12287;DHT22;6206;53.100;11.098;2023-02-19T10:53:47;7.90;99.90
12287;DHT22;6206;53.100;11.098;2023-02-19T10:56:14;8.00;99.90
12287;DHT22;6206;53.100;11.098;2023-02-19T10:58:41;8.10;99.90
12287;DHT22;6206;53.100;11.098;2023-02-19T11:01:14;8.10;99.90
12287;DHT22;6206;53.100;11.098;2023-02-19T11:03:43;8.10;99.90
12287;DHT22;6206;53.100;11.098;2023-02-19T11:06:10;8.00;99.90
12287;DHT22;6206;53.100;11.098;2023-02-19T11:08:48;7.90;99.90
12287;DHT22;6206;53.100;11.098;2023-02-19T11:11:25;7.90;99.90
12287;DHT22;6206;53.100;11.098;2023-02-19T11:13:53;7.80;99.90
12287;DHT22;6206;53.100;11.098;2023-02-19T11:18:52;7.70;99.90
12287;DHT22;6206;53.100;11.098;2023-02-19T11:21:23;7.70;99.90
12287;DHT22;6206;53.100;11.098;2023-02-19T11:23:52;7.60;99.90
12287;DHT22;6206;53.100;11.098;2023-02-19T11:28:48;7.60;99.90
12287;DHT22;6206;53.100;11.098;2023-02-19T11:33:49;7.60;99.90
12287;DHT22;6206;53.100;11.098;2023-02-19T11:36:24;7.60;99.90
12287;DHT22;6206;53.100;11.098;2023-02-19T11:38:50;7.80;99.90
12287;DHT22;6206;53.100;11.098;2023-02-19T11:41:18;7.90;99.90
12287;DHT22;6206;53.100;11.098;2023-02-19T11:43:52;7.90;99.90
12287;DHT22;6206;53.100;11.098;2023-02-19T11:46:20;7.90;99.90
12287;DHT22;6206;53.100;11.098;2023-02-19T11:48:52;7.90;99.90
12287;DHT22;6206;53.100;11.098;2023-02-19T11:53:50;8.10;99.90
12287;DHT22;6206;53.100;11.098;2023-02-19T11:58:55;8.10;99.90
12287;DHT22;6206;53.100;11.098;2023-02-19T12:01:24;8.30;99.90
12287;DHT22;6206;53.100;11.098;2023-02-19T12:04:02;8.30;99.90
12287;DHT22;6206;53.100;11.098;2023-02-19T12:06:35;8.30;99.90
12287;DHT22;6206;53.100;11.098;2023-02-19T12:09:17;8.30;99.90
12287;DHT22;6206;53.100;11.098;2023-02-19T12:11:49;8.40;99.90
12287;DHT22;6206;53.100;11.098;2023-02-19T12:16:46;8.40;99.90
12287;DHT22;6206;53.100;11.098;2023-02-19T12:19:28;8.30;99.90
12287;DHT22;6206;53.100;11.098;2023-02-19T12:22:01;8.30;99.90
12287;DHT22;6206;53.100;11.098;2023-02-19T12:29:28;8.50;99.90
12287;DHT22;6206;53.100;11.098;2023-02-19T12:32:11;8.50;99.90
12287;DHT22;6206;53.100;11.098;2023-02-19T12:34:45;8.50;99.90
12287;DHT22;6206;53.100;11.098;2023-02-19T12:37:21;8.50;99.90
12287;DHT22;6206;53.100;11.098;2023-02-19T12:39:54;8.70;99.90
12287;DHT22;6206;53.100;11.098;2023-02-19T12:42:29;8.70;99.90
12287;DHT22;6206;53.100;11.098;2023-02-19T12:45:00;8.70;99.90
12287;DHT22;6206;53.100;11.098;2023-02-19T12:47:30;8.80;99.90
12287;DHT22;6206;53.100;11.098;2023-02-19T12:49:59;8.80;99.90
12287;DHT22;6206;53.100;11.098;2023-02-19T12:52:30;8.70;99.90
12287;DHT22;6206;53.100;11.098;2023-02-19T12:59:52;8.70;99.90
12287;DHT22;6206;53.100;11.098;2023-02-19T13:02:23;8.70;99.90
12287;DHT22;6206;53.100;11.098;2023-02-19T13:04:52;8.80;99.90
12287;DHT22;6206;53.100;11.098;2023-02-19T13:07:23;8.70;99.90
12287;DHT22;6206;53.100;11.098;2023-02-19T13:09:50;8.70;99.90
12287;DHT22;6206;53.100;11.098;2023-02-19T13:12:19;8.70;99.90
12287;DHT22;6206;53.100;11.098;2023-02-19T13:14:47;8.60;99.90
12287;DHT22;6206;53.100;11.098;2023-02-19T13:17:16;8.60;99.90
12287;DHT22;6206;53.100;11.098;2023-02-19T13:19:45;8.60;99.90
12287;DHT22;6206;53.100;11.098;2023-02-19T13:22:15;8.60;99.90
12287;DHT22;6206;53.100;11.098;2023-02-19T13:25:01;8.60;99.90
12287;DHT22;6206;53.100;11.098;2023-02-19T13:27:43;8.70;99.90
12287;DHT22;6206;53.100;11.098;2023-02-19T13:35:40;8.80;99.90
12287;DHT22;6206;53.100;11.098;2023-02-19T13:38:16;8.80;99.90
12287;DHT22;6206;53.100;11.098;2023-02-19T13:40:51;8.80;99.90
12287;DHT22;6206;53.100;11.098;2023-02-19T13:43:20;8.70;99.90
12287;DHT22;6206;53.100;11.098;2023-02-19T13:45:48;8.70;99.90
12287;DHT22;6206;53.100;11.098;2023-02-19T13:48:24;8.70;99.90
12287;DHT22;6206;53.100;11.098;2023-02-19T13:51:36;8.70;99.90
12287;DHT22;6206;53.100;11.098;2023-02-19T13:53:54;8.70;99.90
12287;DHT22;6206;53.100;11.098;2023-02-19T13:56:35;8.80;99.90
12287;DHT22;6206;53.100;11.098;2023-02-19T13:59:12;8.80;99.90
12287;DHT22;6206;53.100;11.098;2023-02-19T14:04:06;8.90;99.90
12287;DHT22;6206;53.100;11.098;2023-02-19T14:06:36;8.90;99.90
12287;DHT22;6206;53.100;11.098;2023-02-19T14:12:16;9.00;99.90
12287;DHT22;6206;53.100;11.098;2023-02-19T14:14:43;9.00;99.90
12287;DHT22;6206;53.100;11.098;2023-02-19T14:17:24;9.00;99.90
12287;DHT22;6206;53.100;11.098;2023-02-19T14:19:52;8.90;99.90
12287;DHT22;6206;53.100;11.098;2023-02-19T14:25:04;9.00;99.90
12287;DHT22;6206;53.100;11.098;2023-02-19T14:27:34;9.00;99.90
12287;DHT22;6206;53.100;11.098;2023-02-19T14:30:02;9.10;99.90
12287;DHT22;6206;53.100;11.098;2023-02-19T14:32:29;9.10;99.90
12287;DHT22;6206;53.100;11.098;2023-02-19T14:37:22;9.10;99.90
12287;DHT22;6206;53.100;11.098;2023-02-19T14:39:50;9.20;99.90
12287;DHT22;6206;53.100;11.098;2023-02-19T14:42:19;9.10;99.90
12287;DHT22;6206;53.100;11.098;2023-02-19T14:44:49;9.00;99.90
12287;DHT22;6206;53.100;11.098;2023-02-19T14:47:17;9.10;99.90
12287;DHT22;6206;53.100;11.098;2023-02-19T14:49:45;9.00;99.90
12287;DHT22;6206;53.100;11.098;2023-02-19T14:52:13;9.00;99.90
12287;DHT22;6206;53.100;11.098;2023-02-19T14:54:43;9.00;99.90
12287;DHT22;6206;53.100;11.098;2023-02-19T14:57:12;9.00;99.90
12287;DHT22;6206;53.100;11.098;2023-02-19T14:59:40;9.00;99.90
12287;DHT22;6206;53.100;11.098;2023-02-19T15:02:17;8.90;99.90
12287;DHT22;6206;53.100;11.098;2023-02-19T15:04:45;9.00;99.90
12287;DHT22;6206;53.100;11.098;2023-02-19T15:07:12;9.10;99.90
12287;DHT22;6206;53.100;11.098;2023-02-19T15:09:40;9.10;99.90
12287;DHT22;6206;53.100;11.098;2023-02-19T15:12:12;9.10;99.90
12287;DHT22;6206;53.100;11.098;2023-02-19T15:14:39;9.00;99.90
12287;DHT22;6206;53.100;11.098;2023-02-19T15:17:06;9.00;99.90
12287;DHT22;6206;53.100;11.098;2023-02-19T15:22:01;9.00;99.90
12287;DHT22;6206;53.100;11.098;2023-02-19T15:26:55;9.00;99.90
12287;DHT22;6206;53.100;11.098;2023-02-19T15:29:22;9.00;99.90
12287;DHT22;6206;53.100;11.098;2023-02-19T15:31:50;9.00;99.90
12287;DHT22;6206;53.100;11.098;2023-02-19T15:34:17;9.00;99.90
12287;DHT22;6206;53.100;11.098;2023-02-19T15:36:44;9.00;99.90
12287;DHT22;6206;53.100;11.098;2023-02-19T15:39:15;8.90;99.90
12287;DHT22;6206;53.100;11.098;2023-02-19T15:41:42;9.00;99.90
12287;DHT22;6206;53.100;11.098;2023-02-19T15:44:24;9.00;99.90
12287;DHT22;6206;53.100;11.098;2023-02-19T15:46:52;9.10;99.90
12287;DHT22;6206;53.100;11.098;2023-02-19T15:49:19;9.10;99.90
12287;DHT22;6206;53.100;11.098;2023-02-19T15:51:48;9.10;99.90
12287;DHT22;6206;53.100;11.098;2023-02-19T15:54:19;9.10;99.90
12287;DHT22;6206;53.100;11.098;2023-02-19T15:56:48;9.10;99.90
12287;DHT22;6206;53.100;11.098;2023-02-19T15:59:17;9.10;99.90
12287;DHT22;6206;53.100;11.098;2023-02-19T16:01:45;9.10;99.90
12287;DHT22;6206;53.100;11.098;2023-02-19T16:04:13;9.10;99.90
12287;DHT22;6206;53.100;11.098;2023-02-19T16:06:49;9.00;99.90
12287;DHT22;6206;53.100;11.098;2023-02-19T16:09:19;9.00;99.90
12287;DHT22;6206;53.100;11.098;2023-02-19T16:11:46;9.00;99.90
12287;DHT22;6206;53.100;11.098;2023-02-19T16:14:15;9.00;99.90
12287;DHT22;6206;53.100;11.098;2023-02-19T16:16:42;9.00;99.90
12287;DHT22;6206;53.100;11.098;2023-02-19T16:19:10;9.00;99.90
12287;DHT22;6206;53.100;11.098;2023-02-19T16:21:37;9.00;99.90
12287;DHT22;6206;53.100;11.098;2023-02-19T16:24:04;9.00;99.90
12287;DHT22;6206;53.100;11.098;2023-02-19T16:26:38;9.00;99.90
12287;DHT22;6206;53.100;11.098;2023-02-19T16:29:10;9.00;99.90
12287;DHT22;6206;53.100;11.098;2023-02-19T16:31:45;9.00;99.90
12287;DHT22;6206;53.100;11.098;2023-02-19T16:34:16;9.00;99.90
12287;DHT22;6206;53.100;11.098;2023-02-19T16:36:43;9.00;99.90
12287;DHT22;6206;53.100;11.098;2023-02-19T16:39:19;8.90;99.90
12287;DHT22;6206;53.100;11.098;2023-02-19T16:44:33;8.90;99.90
12287;DHT22;6206;53.100;11.098;2023-02-19T16:47:02;8.90;99.90
12287;DHT22;6206;53.100;11.098;2023-02-19T16:49:29;8.90;99.90
12287;DHT22;6206;53.100;11.098;2023-02-19T16:54:22;8.80;99.90
12287;DHT22;6206;53.100;11.098;2023-02-19T16:56:49;8.70;99.90
12287;DHT22;6206;53.100;11.098;2023-02-19T16:59:15;8.70;99.90
12287;DHT22;6206;53.100;11.098;2023-02-19T17:01:43;8.70;99.90
12287;DHT22;6206;53.100;11.098;2023-02-19T17:04:10;8.70;99.90
12287;DHT22;6206;53.100;11.098;2023-02-19T17:06:37;8.70;99.90
12287;DHT22;6206;53.100;11.098;2023-02-19T17:09:04;8.60;99.90
12287;DHT22;6206;53.100;11.098;2023-02-19T17:11:31;8.60;99.90
12287;DHT22;6206;53.100;11.098;2023-02-19T17:13:57;8.60;99.90
12287;DHT22;6206;53.100;11.098;2023-02-19T17:16:24;8.60;99.90
12287;DHT22;6206;53.100;11.098;2023-02-19T17:18:53;8.60;99.90
12287;DHT22;6206;53.100;11.098;2023-02-19T17:26:15;8.50;99.90
12287;DHT22;6206;53.100;11.098;2023-02-19T17:28:42;8.40;99.90
12287;DHT22;6206;53.100;11.098;2023-02-19T17:31:08;8.40;99.90
12287;DHT22;6206;53.100;11.098;2023-02-19T17:33:35;8.30;99.90
12287;DHT22;6206;53.100;11.098;2023-02-19T17:36:03;8.30;99.90
12287;DHT22;6206;53.100;11.098;2023-02-19T17:40:56;8.30;99.90
12287;DHT22;6206;53.100;11.098;2023-02-19T17:45:50;8.20;99.90
12287;DHT22;6206;53.100;11.098;2023-02-19T17:50:43;8.20;99.90
12287;DHT22;6206;53.100;11.098;2023-02-19T17:53:11;8.10;99.90
12287;DHT22;6206;53.100;11.098;2023-02-19T17:55:37;8.10;99.90
12287;DHT22;6206;53.100;11.098;2023-02-19T17:58:04;8.10;99.90
12287;DHT22;6206;53.100;11.098;2023-02-19T18:00:30;8.10;99.90
12287;DHT22;6206;53.100;11.098;2023-02-19T18:02:57;8.10;99.90
12287;DHT22;6206;53.100;11.098;2023-02-19T18:05:23;8.10;99.90
12287;DHT22;6206;53.100;11.098;2023-02-19T18:07:50;8.00;99.90
12287;DHT22;6206;53.100;11.098;2023-02-19T18:10:19;7.90;99.90
12287;DHT22;6206;53.100;11.098;2023-02-19T18:12:46;7.80;99.90
12287;DHT22;6206;53.100;11.098;2023-02-19T18:15:14;7.80;99.90
12287;DHT22;6206;53.100;11.098;2023-02-19T18:17:41;7.80;99.90
12287;DHT22;6206;53.100;11.098;2023-02-19T18:20:10;7.80;99.90
12287;DHT22;6206;53.100;11.098;2023-02-19T18:22:38;7.80;99.90
12287;DHT22;6206;53.100;11.098;2023-02-19T18:25:05;7.80;99.90
12287;DHT22;6206;53.100;11.098;2023-02-19T18:27:33;7.80;99.90
12287;DHT22;6206;53.100;11.098;2023-02-19T18:32:26;7.70;99.90